sensor_id;sensor_type;location;lat;lon;timestamp;temperature;humidity
54431;DHT22;40342;52.998;5.862;2023-04-25T00:00:16;6.00;99.90
54431;DHT22;40342;52.998;5.862;2023-04-25T00:02:42;5.90;99.90
54431;DHT22;40342;52.998;5.862;2023-04-25T00:05:08;5.90;99.90
54431;DHT22;40342;52.998;5.862;2023-04-25T00:07:34;5.90;99.90
54431;DHT22;40342;52.998;5.862;2023-04-25T00:10:00;5.80;99.90
54431;DHT22;40342;52.998;5.862;2023-04-25T00:12:26;5.80;99.90
54431;DHT22;40342;52.998;5.862;2023-04-25T00:14:54;5.80;99.90
54431;DHT22;40342;52.998;5.862;2023-04-25T00:17:23;5.80;99.90
54431;DHT22;40342;52.998;5.862;2023-04-25T00:19:50;5.80;99.90
54431;DHT22;40342;52.998;5.862;2023-04-25T00:22:16;5.80;99.90
54431;DHT22;40342;52.998;5.862;2023-04-25T00:24:41;5.80;99.90
54431;DHT22;40342;52.998;5.862;2023-04-25T00:27:07;5.90;99.90
54431;DHT22;40342;52.998;5.862;2023-04-25T00:29:33;5.90;99.90
54431;DHT22;40342;52.998;5.862;2023-04-25T00:31:58;5.90;99.90
54431;DHT22;40342;52.998;5.862;2023-04-25T00:34:24;6.00;99.90
54431;DHT22;40342;52.998;5.862;2023-04-25T00:36:49;6.00;99.90
54431;DHT22;40342;52.998;5.862;2023-04-25T00:39:15;6.00;99.90
54431;DHT22;40342;52.998;5.862;2023-04-25T00:41:41;6.00;99.90
54431;DHT22;40342;52.998;5.862;2023-04-25T00:44:08;6.10;99.90
54431;DHT22;40342;52.998;5.862;2023-04-25T00:46:36;6.10;99.90
54431;DHT22;40342;52.998;5.862;2023-04-25T00:49:02;6.10;99.90
54431;DHT22;40342;52.998;5.862;2023-04-25T00:51:28;6.10;99.90
54431;DHT22;40342;52.998;5.862;2023-04-25T00:53:54;6.10;99.90
54431;DHT22;40342;52.998;5.862;2023-04-25T00:56:20;6.10;99.90
54431;DHT22;40342;52.998;5.862;2023-04-25T00:58:47;6.20;99.90
54431;DHT22;40342;52.998;5.862;2023-04-25T01:01:13;6.10;99.90
54431;DHT22;40342;52.998;5.862;2023-04-25T01:03:39;6.10;99.90
54431;DHT22;40342;52.998;5.862;2023-04-25T01:06:10;6.10;99.90
54431;DHT22;40342;52.998;5.862;2023-04-25T01:08:37;6.10;99.90
54431;DHT22;40342;52.998;5.862;2023-04-25T01:11:02;6.20;99.90
54431;DHT22;40342;52.998;5.862;2023-04-25T01:13:28;6.10;99.90
54431;DHT22;40342;52.998;5.862;2023-04-25T01:15:54;6.10;99.90
54431;DHT22;40342;52.998;5.862;2023-04-25T01:18:20;6.10;99.90
54431;DHT22;40342;52.998;5.862;2023-04-25T01:20:46;6.00;99.90
54431;DHT22;40342;52.998;5.862;2023-04-25T01:23:12;6.00;99.90
54431;DHT22;40342;52.998;5.862;2023-04-25T01:25:38;6.00;99.90
54431;DHT22;40342;52.998;5.862;2023-04-25T01:28:05;6.00;99.90
54431;DHT22;40342;52.998;5.862;2023-04-25T01:30:31;6.00;99.90
54431;DHT22;40342;52.998;5.862;2023-04-25T01:32:57;6.00;99.90
54431;DHT22;40342;52.998;5.862;2023-04-25T01:35:23;6.00;99.90
54431;DHT22;40342;52.998;5.862;2023-04-25T01:37:49;6.00;99.90
54431;DHT22;40342;52.998;5.862;2023-04-25T01:40:15;6.00;99.90
54431;DHT22;40342;52.998;5.862;2023-04-25T01:42:42;6.00;99.90
54431;DHT22;40342;52.998;5.862;2023-04-25T01:45:09;6.00;99.90
54431;DHT22;40342;52.998;5.862;2023-04-25T01:47:34;5.90;99.90
54431;DHT22;40342;52.998;5.862;2023-04-25T01:50:03;6.00;99.90
54431;DHT22;40342;52.998;5.862;2023-04-25T01:52:29;5.90;99.90
54431;DHT22;40342;52.998;5.862;2023-04-25T01:54:57;5.90;99.90
54431;DHT22;40342;52.998;5.862;2023-04-25T01:57:22;5.90;99.90
54431;DHT22;40342;52.998;5.862;2023-04-25T01:59:48;5.90;99.90
54431;DHT22;40342;52.998;5.862;2023-04-25T02:02:14;5.90;99.90
54431;DHT22;40342;52.998;5.862;2023-04-25T02:04:40;5.90;99.90
54431;DHT22;40342;52.998;5.862;2023-04-25T02:07:05;5.90;99.90
54431;DHT22;40342;52.998;5.862;2023-04-25T02:09:31;5.90;99.90
54431;DHT22;40342;52.998;5.862;2023-04-25T02:11:57;5.80;99.90
54431;DHT22;40342;52.998;5.862;2023-04-25T02:14:23;5.80;99.90
54431;DHT22;40342;52.998;5.862;2023-04-25T02:16:48;5.80;99.90
54431;DHT22;40342;52.998;5.862;2023-04-25T02:19:14;5.80;99.90
54431;DHT22;40342;52.998;5.862;2023-04-25T02:21:40;5.80;99.90
54431;DHT22;40342;52.998;5.862;2023-04-25T02:24:06;5.80;99.90
54431;DHT22;40342;52.998;5.862;2023-04-25T02:26:31;5.80;99.90
54431;DHT22;40342;52.998;5.862;2023-04-25T02:28:57;5.70;99.90
54431;DHT22;40342;52.998;5.862;2023-04-25T02:31:23;5.70;99.90
54431;DHT22;40342;52.998;5.862;2023-04-25T02:33:48;5.70;99.90
54431;DHT22;40342;52.998;5.862;2023-04-25T02:36:14;5.70;99.90
54431;DHT22;40342;52.998;5.862;2023-04-25T02:38:40;5.60;99.90
54431;DHT22;40342;52.998;5.862;2023-04-25T02:41:06;5.60;99.90
54431;DHT22;40342;52.998;5.862;2023-04-25T02:43:31;5.60;99.90
54431;DHT22;40342;52.998;5.862;2023-04-25T02:45:57;5.50;99.90
54431;DHT22;40342;52.998;5.862;2023-04-25T02:48:22;5.50;99.90
54431;DHT22;40342;52.998;5.862;2023-04-25T02:50:48;5.50;99.90
54431;DHT22;40342;52.998;5.862;2023-04-25T02:53:14;5.50;99.90
54431;DHT22;40342;52.998;5.862;2023-04-25T02:55:39;5.50;99.90
54431;DHT22;40342;52.998;5.862;2023-04-25T02:58:05;5.50;99.90
54431;DHT22;40342;52.998;5.862;2023-04-25T03:00:30;5.50;99.90
54431;DHT22;40342;52.998;5.862;2023-04-25T03:02:56;5.50;99.90
54431;DHT22;40342;52.998;5.862;2023-04-25T03:05:22;5.40;99.90
54431;DHT22;40342;52.998;5.862;2023-04-25T03:07:47;5.40;99.90
54431;DHT22;40342;52.998;5.862;2023-04-25T03:10:13;5.40;99.90
54431;DHT22;40342;52.998;5.862;2023-04-25T03:12:38;5.30;99.90
54431;DHT22;40342;52.998;5.862;2023-04-25T03:15:05;5.40;99.90
54431;DHT22;40342;52.998;5.862;2023-04-25T03:17:31;5.30;99.90
54431;DHT22;40342;52.998;5.862;2023-04-25T03:19:57;5.30;99.90
54431;DHT22;40342;52.998;5.862;2023-04-25T03:22:22;5.30;99.90
54431;DHT22;40342;52.998;5.862;2023-04-25T03:24:49;5.30;99.90
54431;DHT22;40342;52.998;5.862;2023-04-25T03:27:14;5.30;99.90
54431;DHT22;40342;52.998;5.862;2023-04-25T03:29:40;5.20;99.90
54431;DHT22;40342;52.998;5.862;2023-04-25T03:32:06;5.20;99.90
54431;DHT22;40342;52.998;5.862;2023-04-25T03:34:32;5.20;99.90
54431;DHT22;40342;52.998;5.862;2023-04-25T03:36:57;5.10;99.90
54431;DHT22;40342;52.998;5.862;2023-04-25T03:39:23;5.20;99.90
54431;DHT22;40342;52.998;5.862;2023-04-25T03:41:48;5.10;99.90
54431;DHT22;40342;52.998;5.862;2023-04-25T03:44:14;5.10;99.90
54431;DHT22;40342;52.998;5.862;2023-04-25T03:46:40;5.20;99.90
54431;DHT22;40342;52.998;5.862;2023-04-25T03:49:05;5.10;99.90
54431;DHT22;40342;52.998;5.862;2023-04-25T03:51:31;5.10;99.90
54431;DHT22;40342;52.998;5.862;2023-04-25T03:53:56;5.10;99.90
54431;DHT22;40342;52.998;5.862;2023-04-25T03:56:22;5.10;99.90
54431;DHT22;40342;52.998;5.862;2023-04-25T03:58:48;5.10;99.90
54431;DHT22;40342;52.998;5.862;2023-04-25T04:01:13;5.10;99.90
54431;DHT22;40342;52.998;5.862;2023-04-25T04:03:39;5.10;99.90
54431;DHT22;40342;52.998;5.862;2023-04-25T04:06:06;5.10;99.90
54431;DHT22;40342;52.998;5.862;2023-04-25T04:08:33;5.10;99.90
54431;DHT22;40342;52.998;5.862;2023-04-25T04:10:58;5.10;99.90
54431;DHT22;40342;52.998;5.862;2023-04-25T04:13:28;5.10;99.90
54431;DHT22;40342;52.998;5.862;2023-04-25T04:15:54;5.10;99.90
54431;DHT22;40342;52.998;5.862;2023-04-25T04:18:19;5.10;99.90
54431;DHT22;40342;52.998;5.862;2023-04-25T04:20:45;5.10;99.90
54431;DHT22;40342;52.998;5.862;2023-04-25T04:23:11;5.10;99.90
54431;DHT22;40342;52.998;5.862;2023-04-25T04:25:36;5.10;99.90
54431;DHT22;40342;52.998;5.862;2023-04-25T04:28:02;5.10;99.90
54431;DHT22;40342;52.998;5.862;2023-04-25T04:30:28;5.10;99.90
54431;DHT22;40342;52.998;5.862;2023-04-25T04:32:56;5.00;99.90
54431;DHT22;40342;52.998;5.862;2023-04-25T04:35:23;5.00;99.90
54431;DHT22;40342;52.998;5.862;2023-04-25T04:37:49;5.00;99.90
54431;DHT22;40342;52.998;5.862;2023-04-25T04:40:15;5.00;99.90
54431;DHT22;40342;52.998;5.862;2023-04-25T04:42:42;4.90;99.90
54431;DHT22;40342;52.998;5.862;2023-04-25T04:45:08;4.90;99.90
54431;DHT22;40342;52.998;5.862;2023-04-25T04:47:34;4.90;99.90
54431;DHT22;40342;52.998;5.862;2023-04-25T04:50:06;4.90;99.90
54431;DHT22;40342;52.998;5.862;2023-04-25T04:52:32;5.00;99.90
54431;DHT22;40342;52.998;5.862;2023-04-25T04:54:58;5.00;99.90
54431;DHT22;40342;52.998;5.862;2023-04-25T04:57:23;5.00;99.90
54431;DHT22;40342;52.998;5.862;2023-04-25T04:59:49;5.00;99.90
54431;DHT22;40342;52.998;5.862;2023-04-25T05:02:15;5.00;99.90
54431;DHT22;40342;52.998;5.862;2023-04-25T05:04:41;4.90;99.90
54431;DHT22;40342;52.998;5.862;2023-04-25T05:07:06;4.90;99.90
54431;DHT22;40342;52.998;5.862;2023-04-25T05:09:32;4.90;99.90
54431;DHT22;40342;52.998;5.862;2023-04-25T05:11:57;4.90;99.90
54431;DHT22;40342;52.998;5.862;2023-04-25T05:14:23;4.80;99.90
54431;DHT22;40342;52.998;5.862;2023-04-25T05:16:49;4.90;99.90
54431;DHT22;40342;52.998;5.862;2023-04-25T05:19:14;4.90;99.90
54431;DHT22;40342;52.998;5.862;2023-04-25T05:21:40;4.80;99.90
54431;DHT22;40342;52.998;5.862;2023-04-25T05:24:05;4.80;99.90
54431;DHT22;40342;52.998;5.862;2023-04-25T05:26:31;4.90;99.90
54431;DHT22;40342;52.998;5.862;2023-04-25T05:29:00;4.90;99.90
54431;DHT22;40342;52.998;5.862;2023-04-25T05:31:26;4.90;99.90
54431;DHT22;40342;52.998;5.862;2023-04-25T05:33:51;5.00;99.90
54431;DHT22;40342;52.998;5.862;2023-04-25T05:36:18;5.00;99.90
54431;DHT22;40342;52.998;5.862;2023-04-25T05:38:45;5.10;99.90
54431;DHT22;40342;52.998;5.862;2023-04-25T05:41:10;5.10;99.90
54431;DHT22;40342;52.998;5.862;2023-04-25T05:43:36;5.10;99.90
54431;DHT22;40342;52.998;5.862;2023-04-25T05:46:01;5.10;99.90
54431;DHT22;40342;52.998;5.862;2023-04-25T05:48:27;5.20;99.90
54431;DHT22;40342;52.998;5.862;2023-04-25T05:50:53;5.20;99.90
54431;DHT22;40342;52.998;5.862;2023-04-25T05:53:19;5.30;99.90
54431;DHT22;40342;52.998;5.862;2023-04-25T05:55:46;5.40;99.90
54431;DHT22;40342;52.998;5.862;2023-04-25T05:58:12;5.40;99.90
54431;DHT22;40342;52.998;5.862;2023-04-25T06:00:37;5.50;99.90
54431;DHT22;40342;52.998;5.862;2023-04-25T06:03:03;5.50;99.90
54431;DHT22;40342;52.998;5.862;2023-04-25T06:05:29;5.60;99.90
54431;DHT22;40342;52.998;5.862;2023-04-25T06:07:55;5.60;99.90
54431;DHT22;40342;52.998;5.862;2023-04-25T06:10:21;5.60;99.90
54431;DHT22;40342;52.998;5.862;2023-04-25T06:12:49;5.80;99.90
54431;DHT22;40342;52.998;5.862;2023-04-25T06:15:14;6.10;99.90
54431;DHT22;40342;52.998;5.862;2023-04-25T06:17:41;5.60;99.90
54431;DHT22;40342;52.998;5.862;2023-04-25T06:20:07;5.70;99.90
54431;DHT22;40342;52.998;5.862;2023-04-25T06:22:33;5.60;99.90
54431;DHT22;40342;52.998;5.862;2023-04-25T06:24:59;5.70;99.90
54431;DHT22;40342;52.998;5.862;2023-04-25T06:27:25;5.70;99.90
54431;DHT22;40342;52.998;5.862;2023-04-25T06:29:51;5.70;99.90
54431;DHT22;40342;52.998;5.862;2023-04-25T06:32:16;5.70;99.90
54431;DHT22;40342;52.998;5.862;2023-04-25T06:34:43;5.80;99.90
54431;DHT22;40342;52.998;5.862;2023-04-25T06:37:09;5.80;99.90
54431;DHT22;40342;52.998;5.862;2023-04-25T06:39:35;5.80;99.90
54431;DHT22;40342;52.998;5.862;2023-04-25T06:42:00;5.80;99.90
54431;DHT22;40342;52.998;5.862;2023-04-25T06:44:26;5.80;99.90
54431;DHT22;40342;52.998;5.862;2023-04-25T06:46:51;5.80;99.90
54431;DHT22;40342;52.998;5.862;2023-04-25T06:49:17;5.80;99.90
54431;DHT22;40342;52.998;5.862;2023-04-25T06:51:43;5.80;99.90
54431;DHT22;40342;52.998;5.862;2023-04-25T06:54:08;5.90;99.90
54431;DHT22;40342;52.998;5.862;2023-04-25T06:56:34;5.90;99.90
54431;DHT22;40342;52.998;5.862;2023-04-25T06:58:59;6.00;99.90
54431;DHT22;40342;52.998;5.862;2023-04-25T07:01:26;5.90;99.90
54431;DHT22;40342;52.998;5.862;2023-04-25T07:03:51;6.00;99.90
54431;DHT22;40342;52.998;5.862;2023-04-25T07:06:17;6.00;99.90
54431;DHT22;40342;52.998;5.862;2023-04-25T07:08:42;6.00;99.90
54431;DHT22;40342;52.998;5.862;2023-04-25T07:11:08;6.10;99.90
54431;DHT22;40342;52.998;5.862;2023-04-25T07:13:34;6.10;99.90
54431;DHT22;40342;52.998;5.862;2023-04-25T07:16:00;6.30;99.90
54431;DHT22;40342;52.998;5.862;2023-04-25T07:18:25;6.30;99.90
54431;DHT22;40342;52.998;5.862;2023-04-25T07:20:51;6.20;99.90
54431;DHT22;40342;52.998;5.862;2023-04-25T07:23:16;6.10;99.90
54431;DHT22;40342;52.998;5.862;2023-04-25T07:25:42;5.80;99.90
54431;DHT22;40342;52.998;5.862;2023-04-25T07:28:08;5.70;99.90
54431;DHT22;40342;52.998;5.862;2023-04-25T07:30:33;5.60;99.90
54431;DHT22;40342;52.998;5.862;2023-04-25T07:33:00;5.40;99.90
54431;DHT22;40342;52.998;5.862;2023-04-25T07:35:26;6.10;99.90
54431;DHT22;40342;52.998;5.862;2023-04-25T07:37:51;5.40;99.90
54431;DHT22;40342;52.998;5.862;2023-04-25T07:40:17;5.40;99.90
54431;DHT22;40342;52.998;5.862;2023-04-25T07:42:42;5.40;99.90
54431;DHT22;40342;52.998;5.862;2023-04-25T07:45:08;5.50;99.90
54431;DHT22;40342;52.998;5.862;2023-04-25T07:47:35;5.50;99.90
54431;DHT22;40342;52.998;5.862;2023-04-25T07:50:01;5.50;99.90
54431;DHT22;40342;52.998;5.862;2023-04-25T07:52:26;5.60;99.90
54431;DHT22;40342;52.998;5.862;2023-04-25T07:54:52;5.60;99.90
54431;DHT22;40342;52.998;5.862;2023-04-25T07:57:18;5.70;99.90
54431;DHT22;40342;52.998;5.862;2023-04-25T07:59:45;5.80;99.90
54431;DHT22;40342;52.998;5.862;2023-04-25T08:02:11;5.90;99.90
54431;DHT22;40342;52.998;5.862;2023-04-25T08:04:37;6.00;99.90
54431;DHT22;40342;52.998;5.862;2023-04-25T08:07:02;6.10;99.90
54431;DHT22;40342;52.998;5.862;2023-04-25T08:09:28;6.30;99.90
54431;DHT22;40342;52.998;5.862;2023-04-25T08:11:54;6.30;99.90
54431;DHT22;40342;52.998;5.862;2023-04-25T08:14:20;6.30;99.90
54431;DHT22;40342;52.998;5.862;2023-04-25T08:16:45;6.20;99.90
54431;DHT22;40342;52.998;5.862;2023-04-25T08:19:11;6.20;99.90
54431;DHT22;40342;52.998;5.862;2023-04-25T08:21:37;6.20;99.90
54431;DHT22;40342;52.998;5.862;2023-04-25T08:24:03;6.20;99.90
54431;DHT22;40342;52.998;5.862;2023-04-25T08:26:29;6.20;99.90
54431;DHT22;40342;52.998;5.862;2023-04-25T08:28:55;6.30;99.90
54431;DHT22;40342;52.998;5.862;2023-04-25T08:31:20;6.30;99.90
54431;DHT22;40342;52.998;5.862;2023-04-25T08:33:46;6.50;99.90
54431;DHT22;40342;52.998;5.862;2023-04-25T08:36:12;6.50;99.90
54431;DHT22;40342;52.998;5.862;2023-04-25T08:38:37;6.60;99.90
54431;DHT22;40342;52.998;5.862;2023-04-25T08:41:03;6.70;99.90
54431;DHT22;40342;52.998;5.862;2023-04-25T08:43:30;6.80;99.90
54431;DHT22;40342;52.998;5.862;2023-04-25T08:45:59;6.90;99.90
54431;DHT22;40342;52.998;5.862;2023-04-25T08:48:27;7.00;99.90
54431;DHT22;40342;52.998;5.862;2023-04-25T08:50:55;7.10;99.90
54431;DHT22;40342;52.998;5.862;2023-04-25T08:53:30;7.20;99.90
54431;DHT22;40342;52.998;5.862;2023-04-25T08:55:58;7.30;99.90
54431;DHT22;40342;52.998;5.862;2023-04-25T08:58:24;7.30;99.90
54431;DHT22;40342;52.998;5.862;2023-04-25T09:00:50;7.30;99.90
54431;DHT22;40342;52.998;5.862;2023-04-25T09:03:17;7.40;99.90
54431;DHT22;40342;52.998;5.862;2023-04-25T09:05:42;7.50;99.90
54431;DHT22;40342;52.998;5.862;2023-04-25T09:08:08;7.50;99.90
54431;DHT22;40342;52.998;5.862;2023-04-25T09:10:35;7.60;99.90
54431;DHT22;40342;52.998;5.862;2023-04-25T09:13:08;7.70;99.90
54431;DHT22;40342;52.998;5.862;2023-04-25T09:15:48;7.80;99.90
54431;DHT22;40342;52.998;5.862;2023-04-25T09:18:25;7.90;99.90
54431;DHT22;40342;52.998;5.862;2023-04-25T09:20:56;8.00;99.90
54431;DHT22;40342;52.998;5.862;2023-04-25T09:23:23;7.90;99.90
54431;DHT22;40342;52.998;5.862;2023-04-25T09:25:50;7.90;99.90
54431;DHT22;40342;52.998;5.862;2023-04-25T09:28:23;7.90;99.90
54431;DHT22;40342;52.998;5.862;2023-04-25T09:30:55;7.70;99.90
54431;DHT22;40342;52.998;5.862;2023-04-25T09:33:35;7.50;99.90
54431;DHT22;40342;52.998;5.862;2023-04-25T09:36:06;7.10;99.90
54431;DHT22;40342;52.998;5.862;2023-04-25T09:38:43;6.90;99.90
54431;DHT22;40342;52.998;5.862;2023-04-25T09:41:09;6.80;99.90
54431;DHT22;40342;52.998;5.862;2023-04-25T09:43:36;6.80;99.90
54431;DHT22;40342;52.998;5.862;2023-04-25T09:46:02;6.90;99.90
54431;DHT22;40342;52.998;5.862;2023-04-25T09:48:28;6.90;99.90
54431;DHT22;40342;52.998;5.862;2023-04-25T09:51:10;6.90;99.90
54431;DHT22;40342;52.998;5.862;2023-04-25T09:53:37;6.80;99.90
54431;DHT22;40342;52.998;5.862;2023-04-25T09:56:08;6.70;99.90
54431;DHT22;40342;52.998;5.862;2023-04-25T09:58:34;6.70;99.90
54431;DHT22;40342;52.998;5.862;2023-04-25T10:01:03;6.70;99.90
54431;DHT22;40342;52.998;5.862;2023-04-25T10:03:30;6.70;99.90
54431;DHT22;40342;52.998;5.862;2023-04-25T10:05:59;6.80;99.90
54431;DHT22;40342;52.998;5.862;2023-04-25T10:08:26;6.80;99.90
54431;DHT22;40342;52.998;5.862;2023-04-25T10:10:53;6.90;99.90
54431;DHT22;40342;52.998;5.862;2023-04-25T10:13:19;7.00;99.90
54431;DHT22;40342;52.998;5.862;2023-04-25T10:15:45;7.20;99.90
54431;DHT22;40342;52.998;5.862;2023-04-25T10:18:12;7.30;99.90
54431;DHT22;40342;52.998;5.862;2023-04-25T10:20:38;7.60;99.90
54431;DHT22;40342;52.998;5.862;2023-04-25T10:23:10;7.80;99.90
54431;DHT22;40342;52.998;5.862;2023-04-25T10:25:38;7.90;99.90
54431;DHT22;40342;52.998;5.862;2023-04-25T10:28:04;8.20;99.90
54431;DHT22;40342;52.998;5.862;2023-04-25T10:30:30;8.30;99.90
54431;DHT22;40342;52.998;5.862;2023-04-25T10:32:56;8.50;99.90
54431;DHT22;40342;52.998;5.862;2023-04-25T10:35:29;8.60;99.90
54431;DHT22;40342;52.998;5.862;2023-04-25T10:38:13;8.90;99.90
54431;DHT22;40342;52.998;5.862;2023-04-25T10:40:39;9.00;99.90
54431;DHT22;40342;52.998;5.862;2023-04-25T10:43:43;9.00;99.90
54431;DHT22;40342;52.998;5.862;2023-04-25T10:46:25;9.00;99.90
54431;DHT22;40342;52.998;5.862;2023-04-25T10:48:56;9.20;99.90
54431;DHT22;40342;52.998;5.862;2023-04-25T10:54:08;9.40;99.90
54431;DHT22;40342;52.998;5.862;2023-04-25T10:56:38;9.60;99.90
54431;DHT22;40342;52.998;5.862;2023-04-25T10:59:18;9.60;99.90
54431;DHT22;40342;52.998;5.862;2023-04-25T11:01:51;9.70;99.90
54431;DHT22;40342;52.998;5.862;2023-04-25T11:07:12;10.10;99.90
54431;DHT22;40342;52.998;5.862;2023-04-25T11:09:40;10.20;99.90
54431;DHT22;40342;52.998;5.862;2023-04-25T11:12:08;10.20;99.90
54431;DHT22;40342;52.998;5.862;2023-04-25T11:14:34;10.30;99.90
54431;DHT22;40342;52.998;5.862;2023-04-25T11:17:00;10.40;99.90
54431;DHT22;40342;52.998;5.862;2023-04-25T11:19:29;10.30;99.90
54431;DHT22;40342;52.998;5.862;2023-04-25T11:21:56;10.30;99.90
54431;DHT22;40342;52.998;5.862;2023-04-25T11:24:27;10.20;99.90
54431;DHT22;40342;52.998;5.862;2023-04-25T11:26:53;10.30;99.90
54431;DHT22;40342;52.998;5.862;2023-04-25T11:29:22;10.30;99.90
54431;DHT22;40342;52.998;5.862;2023-04-25T11:31:48;10.30;99.90
54431;DHT22;40342;52.998;5.862;2023-04-25T11:34:17;10.00;99.90
54431;DHT22;40342;52.998;5.862;2023-04-25T11:36:45;9.70;99.90
54431;DHT22;40342;52.998;5.862;2023-04-25T11:39:10;9.40;99.90
54431;DHT22;40342;52.998;5.862;2023-04-25T11:41:37;9.10;99.90
54431;DHT22;40342;52.998;5.862;2023-04-25T11:44:03;8.90;99.90
54431;DHT22;40342;52.998;5.862;2023-04-25T11:46:30;8.80;99.90
54431;DHT22;40342;52.998;5.862;2023-04-25T11:48:56;8.90;99.90
54431;DHT22;40342;52.998;5.862;2023-04-25T11:51:22;8.90;99.90
54431;DHT22;40342;52.998;5.862;2023-04-25T11:53:48;9.20;99.90
54431;DHT22;40342;52.998;5.862;2023-04-25T11:56:13;9.50;99.90
54431;DHT22;40342;52.998;5.862;2023-04-25T11:58:59;9.70;99.90
54431;DHT22;40342;52.998;5.862;2023-04-25T12:01:29;9.90;99.90
54431;DHT22;40342;52.998;5.862;2023-04-25T12:03:56;10.10;99.90
54431;DHT22;40342;52.998;5.862;2023-04-25T12:06:26;10.10;99.90
54431;DHT22;40342;52.998;5.862;2023-04-25T12:09:07;10.00;99.90
54431;DHT22;40342;52.998;5.862;2023-04-25T12:11:43;10.00;99.90
54431;DHT22;40342;52.998;5.862;2023-04-25T12:14:10;10.00;99.90
54431;DHT22;40342;52.998;5.862;2023-04-25T12:16:46;10.00;99.90
54431;DHT22;40342;52.998;5.862;2023-04-25T12:19:16;10.10;99.90
54431;DHT22;40342;52.998;5.862;2023-04-25T12:21:43;10.10;99.90
54431;DHT22;40342;52.998;5.862;2023-04-25T12:24:22;10.20;99.90
54431;DHT22;40342;52.998;5.862;2023-04-25T12:26:51;10.20;99.90
54431;DHT22;40342;52.998;5.862;2023-04-25T12:29:23;10.30;99.90
54431;DHT22;40342;52.998;5.862;2023-04-25T12:31:50;10.30;99.90
54431;DHT22;40342;52.998;5.862;2023-04-25T12:34:17;10.50;99.90
54431;DHT22;40342;52.998;5.862;2023-04-25T12:36:43;10.60;99.90
54431;DHT22;40342;52.998;5.862;2023-04-25T12:39:14;10.50;99.90
54431;DHT22;40342;52.998;5.862;2023-04-25T12:41:40;10.50;99.90
54431;DHT22;40342;52.998;5.862;2023-04-25T12:44:06;10.60;99.90
54431;DHT22;40342;52.998;5.862;2023-04-25T12:46:32;10.50;99.90
54431;DHT22;40342;52.998;5.862;2023-04-25T12:48:57;10.40;99.90
54431;DHT22;40342;52.998;5.862;2023-04-25T12:51:23;10.10;99.90
54431;DHT22;40342;52.998;5.862;2023-04-25T12:53:50;9.90;99.90
54431;DHT22;40342;52.998;5.862;2023-04-25T12:56:16;9.70;99.90
54431;DHT22;40342;52.998;5.862;2023-04-25T12:58:42;9.60;99.90
54431;DHT22;40342;52.998;5.862;2023-04-25T13:01:09;9.50;99.90
54431;DHT22;40342;52.998;5.862;2023-04-25T13:03:35;9.60;99.90
54431;DHT22;40342;52.998;5.862;2023-04-25T13:06:01;9.70;99.90
54431;DHT22;40342;52.998;5.862;2023-04-25T13:08:26;10.00;99.90
54431;DHT22;40342;52.998;5.862;2023-04-25T13:10:52;10.20;99.90
54431;DHT22;40342;52.998;5.862;2023-04-25T13:13:17;10.50;99.90
54431;DHT22;40342;52.998;5.862;2023-04-25T13:15:43;10.50;99.90
54431;DHT22;40342;52.998;5.862;2023-04-25T13:18:09;10.30;99.90
54431;DHT22;40342;52.998;5.862;2023-04-25T13:20:34;10.00;99.90
54431;DHT22;40342;52.998;5.862;2023-04-25T13:23:00;9.70;99.90
54431;DHT22;40342;52.998;5.862;2023-04-25T13:25:26;9.30;99.90
54431;DHT22;40342;52.998;5.862;2023-04-25T13:27:51;8.90;99.90
54431;DHT22;40342;52.998;5.862;2023-04-25T13:30:17;8.60;99.90
54431;DHT22;40342;52.998;5.862;2023-04-25T13:32:42;8.40;99.90
54431;DHT22;40342;52.998;5.862;2023-04-25T13:35:11;8.40;99.90
54431;DHT22;40342;52.998;5.862;2023-04-25T13:37:38;8.60;99.90
54431;DHT22;40342;52.998;5.862;2023-04-25T13:40:06;8.80;99.90
54431;DHT22;40342;52.998;5.862;2023-04-25T13:42:33;9.00;99.90
54431;DHT22;40342;52.998;5.862;2023-04-25T13:44:58;9.40;99.90
54431;DHT22;40342;52.998;5.862;2023-04-25T13:47:25;9.60;99.90
54431;DHT22;40342;52.998;5.862;2023-04-25T13:49:51;9.90;99.90
54431;DHT22;40342;52.998;5.862;2023-04-25T13:52:17;10.00;99.90
54431;DHT22;40342;52.998;5.862;2023-04-25T13:54:42;9.90;99.90
54431;DHT22;40342;52.998;5.862;2023-04-25T13:57:08;9.70;99.90
54431;DHT22;40342;52.998;5.862;2023-04-25T13:59:33;9.60;99.90
54431;DHT22;40342;52.998;5.862;2023-04-25T14:01:59;9.60;99.90
54431;DHT22;40342;52.998;5.862;2023-04-25T14:04:25;9.70;99.90
54431;DHT22;40342;52.998;5.862;2023-04-25T14:06:51;9.90;99.90
54431;DHT22;40342;52.998;5.862;2023-04-25T14:09:18;10.10;99.90
54431;DHT22;40342;52.998;5.862;2023-04-25T14:11:43;10.30;99.90
54431;DHT22;40342;52.998;5.862;2023-04-25T14:14:09;10.40;99.90
54431;DHT22;40342;52.998;5.862;2023-04-25T14:16:34;10.60;99.90
54431;DHT22;40342;52.998;5.862;2023-04-25T14:19:00;10.70;99.90
54431;DHT22;40342;52.998;5.862;2023-04-25T14:21:27;10.90;99.90
54431;DHT22;40342;52.998;5.862;2023-04-25T14:23:53;11.10;99.90
54431;DHT22;40342;52.998;5.862;2023-04-25T14:26:19;11.20;99.90
54431;DHT22;40342;52.998;5.862;2023-04-25T14:28:45;11.30;99.90
54431;DHT22;40342;52.998;5.862;2023-04-25T14:31:10;11.40;99.90
54431;DHT22;40342;52.998;5.862;2023-04-25T14:33:36;11.40;99.90
54431;DHT22;40342;52.998;5.862;2023-04-25T14:36:05;11.10;99.90
54431;DHT22;40342;52.998;5.862;2023-04-25T14:38:30;11.10;99.90
54431;DHT22;40342;52.998;5.862;2023-04-25T14:40:56;11.10;99.90
54431;DHT22;40342;52.998;5.862;2023-04-25T14:43:21;11.10;99.90
54431;DHT22;40342;52.998;5.862;2023-04-25T14:45:47;11.00;99.90
54431;DHT22;40342;52.998;5.862;2023-04-25T14:48:13;10.80;99.90
54431;DHT22;40342;52.998;5.862;2023-04-25T14:50:38;10.60;99.90
54431;DHT22;40342;52.998;5.862;2023-04-25T14:53:04;10.40;99.90
54431;DHT22;40342;52.998;5.862;2023-04-25T14:55:29;10.30;99.90
54431;DHT22;40342;52.998;5.862;2023-04-25T14:57:55;10.30;99.90
54431;DHT22;40342;52.998;5.862;2023-04-25T15:00:21;10.30;99.90
54431;DHT22;40342;52.998;5.862;2023-04-25T15:02:48;10.10;99.90
54431;DHT22;40342;52.998;5.862;2023-04-25T15:05:14;9.90;99.90
54431;DHT22;40342;52.998;5.862;2023-04-25T15:07:40;9.60;99.90
54431;DHT22;40342;52.998;5.862;2023-04-25T15:10:10;9.40;99.90
54431;DHT22;40342;52.998;5.862;2023-04-25T15:12:45;9.20;99.90
54431;DHT22;40342;52.998;5.862;2023-04-25T15:15:11;9.10;99.90
54431;DHT22;40342;52.998;5.862;2023-04-25T15:17:46;9.00;99.90
54431;DHT22;40342;52.998;5.862;2023-04-25T15:20:13;8.90;99.90
54431;DHT22;40342;52.998;5.862;2023-04-25T15:22:40;8.90;99.90
54431;DHT22;40342;52.998;5.862;2023-04-25T15:25:10;8.80;99.90
54431;DHT22;40342;52.998;5.862;2023-04-25T15:27:37;8.90;99.90
54431;DHT22;40342;52.998;5.862;2023-04-25T15:30:12;9.00;99.90
54431;DHT22;40342;52.998;5.862;2023-04-25T15:32:43;9.20;99.90
54431;DHT22;40342;52.998;5.862;2023-04-25T15:35:10;9.40;99.90
54431;DHT22;40342;52.998;5.862;2023-04-25T15:37:36;9.50;99.90
54431;DHT22;40342;52.998;5.862;2023-04-25T15:40:04;9.60;99.90
54431;DHT22;40342;52.998;5.862;2023-04-25T15:42:35;9.80;99.90
54431;DHT22;40342;52.998;5.862;2023-04-25T15:45:02;9.90;99.90